createdAt,value
2018-12-26T00:01:55.704Z,65.23
2018-12-26T00:04:26.659Z,65.34
2018-12-26T00:06:57.940Z,65.20
2018-12-26T00:09:29.284Z,65.09
2018-12-26T00:12:00.243Z,65.72
2018-12-26T00:14:31.526Z,65.50
2018-12-26T00:17:02.493Z,64.96
2018-12-26T00:19:33.545Z,65.44
2018-12-26T00:22:04.689Z,65.68
2018-12-26T00:24:36.244Z,65.46
2018-12-26T00:27:07.577Z,64.72
2018-12-26T00:29:38.468Z,64.94
2018-12-26T00:32:09.739Z,64.60
2018-12-26T00:34:42.097Z,65.23
2018-12-26T00:37:13.203Z,64.97
2018-12-26T00:39:44.238Z,64.84
2018-12-26T00:42:15.511Z,65.35
2018-12-26T00:44:46.943Z,64.94
2018-12-26T00:47:17.916Z,65.26
2018-12-26T00:49:48.872Z,65.15
2018-12-26T00:52:20.192Z,65.51
2018-12-26T00:54:51.217Z,65.33
2018-12-26T00:57:22.185Z,65.94
2018-12-26T00:59:53.160Z,65.75
2018-12-26T01:02:24.667Z,65.01
2018-12-26T01:04:55.863Z,65.26
2018-12-26T01:07:26.837Z,65.03
2018-12-26T01:09:58.674Z,65.14
2018-12-26T01:12:29.885Z,64.93
2018-12-26T01:15:00.910Z,65.40
2018-12-26T01:17:33.245Z,65.82
2018-12-26T01:20:05.708Z,65.59
2018-12-26T01:22:36.680Z,65.16
2018-12-26T01:25:07.715Z,66.07
2018-12-26T01:27:39.024Z,65.67
2018-12-26T01:30:10.116Z,65.70
2018-12-26T01:32:42.098Z,65.51
2018-12-26T01:35:13.340Z,65.36
2018-12-26T01:37:44.316Z,65.67
2018-12-26T01:40:15.321Z,66.26
2018-12-26T01:42:46.610Z,65.89
2018-12-26T01:45:18.631Z,66.11
2018-12-26T01:47:49.853Z,66.15
2018-12-26T01:50:20.882Z,65.55
2018-12-26T01:52:51.865Z,65.84
2018-12-26T01:55:22.831Z,65.59
2018-12-26T01:57:53.878Z,65.84
2018-12-26T02:00:24.947Z,65.46
2018-12-26T02:02:55.931Z,66.23
2018-12-26T02:05:26.890Z,66.41
2018-12-26T02:07:59.009Z,66.22
2018-12-26T02:10:29.983Z,66.51
2018-12-26T02:13:00.942Z,66.30
2018-12-26T02:15:32.197Z,66.33
2018-12-26T02:18:03.652Z,66.03
2018-12-26T02:20:34.805Z,66.58
2018-12-26T02:23:06.039Z,66.37
2018-12-26T02:25:37.108Z,66.40
2018-12-26T02:28:14.130Z,66.84
2018-12-26T02:30:45.422Z,66.79
2018-12-26T02:33:16.373Z,66.12
2018-12-26T02:35:47.599Z,66.35
2018-12-26T02:38:18.930Z,65.86
2018-12-26T02:40:50.128Z,66.29
2018-12-26T02:43:21.723Z,65.97
2018-12-26T02:45:52.796Z,65.83
2018-12-26T02:48:23.833Z,65.60
2018-12-26T02:50:54.864Z,65.43
2018-12-26T02:53:25.844Z,65.65
2018-12-26T02:55:56.872Z,65.51
2018-12-26T02:58:29.018Z,65.46
2018-12-26T03:01:00.346Z,65.50
2018-12-26T03:03:31.320Z,65.52
2018-12-26T03:06:02.557Z,65.25
2018-12-26T03:08:33.578Z,65.59
2018-12-26T03:11:04.687Z,65.68
2018-12-26T03:13:35.729Z,65.78
2018-12-26T03:16:06.703Z,65.06
2018-12-26T03:18:37.665Z,65.62
2018-12-26T03:21:08.721Z,65.42
2018-12-26T03:23:39.678Z,64.82
2018-12-26T03:26:10.916Z,65.21
2018-12-26T03:28:42.525Z,65.43
2018-12-26T03:31:13.771Z,65.34
2018-12-26T03:33:44.961Z,65.31
2018-12-26T03:36:16.292Z,65.76
2018-12-26T03:38:47.784Z,65.18
2018-12-26T03:41:18.767Z,65.28
2018-12-26T03:43:49.862Z,65.31
2018-12-26T03:46:21.116Z,66.12
2018-12-26T03:48:52.402Z,65.93
2018-12-26T03:51:23.361Z,65.71
2018-12-26T03:53:54.599Z,66.20
2018-12-26T03:56:25.710Z,66.32
2018-12-26T03:58:56.762Z,66.40
2018-12-26T04:01:29.110Z,65.82
2018-12-26T04:04:00.138Z,65.86
2018-12-26T04:06:31.247Z,65.81
2018-12-26T04:09:02.345Z,65.51
2018-12-26T04:11:33.676Z,65.46
2018-12-26T04:14:04.638Z,66.02
2018-12-26T04:16:35.603Z,65.74
2018-12-26T04:19:06.635Z,65.79
2018-12-26T04:21:37.993Z,65.58
2018-12-26T04:24:09.124Z,66.13
2018-12-26T04:26:40.110Z,66.00
2018-12-26T04:29:11.307Z,66.50
2018-12-26T04:31:42.398Z,66.32
2018-12-26T04:34:13.351Z,66.48
2018-12-26T04:36:44.332Z,65.65
2018-12-26T04:39:15.583Z,65.61
2018-12-26T04:41:46.558Z,65.92
2018-12-26T04:44:17.874Z,66.12
2018-12-26T04:46:48.904Z,65.88
2018-12-26T04:49:19.966Z,65.86
2018-12-26T04:51:50.919Z,66.04
2018-12-26T04:54:21.884Z,65.89
2018-12-26T04:56:52.832Z,65.39
2018-12-26T04:59:23.803Z,65.96
2018-12-26T05:01:55.004Z,65.63
2018-12-26T05:04:26.112Z,66.11
2018-12-26T05:06:57.357Z,65.90
2018-12-26T05:09:28.412Z,65.78
2018-12-26T05:12:00.118Z,66.19
2018-12-26T05:14:31.156Z,65.28
2018-12-26T05:17:02.289Z,65.52
2018-12-26T05:19:33.337Z,65.61
2018-12-26T05:22:04.369Z,65.70
2018-12-26T05:24:35.488Z,65.82
2018-12-26T05:27:06.447Z,66.20
2018-12-26T05:29:37.495Z,65.56
2018-12-26T05:32:09.088Z,65.41
2018-12-26T05:34:40.062Z,65.85
2018-12-26T05:37:11.020Z,66.04
2018-12-26T05:39:42.798Z,66.45
2018-12-26T05:42:13.832Z,66.11
2018-12-26T05:44:44.792Z,65.89
2018-12-26T05:47:15.745Z,66.28
2018-12-26T05:49:46.714Z,66.01
2018-12-26T05:52:17.747Z,66.35
2018-12-26T05:54:48.708Z,66.08
2018-12-26T05:57:19.901Z,65.71
2018-12-26T05:59:51.064Z,65.85
2018-12-26T06:02:22.023Z,66.06
2018-12-26T06:04:52.987Z,65.72
2018-12-26T06:07:23.966Z,66.44
2018-12-26T06:09:55.287Z,66.03
2018-12-26T06:12:26.230Z,66.22
2018-12-26T06:14:57.297Z,65.65
2018-12-26T06:17:28.359Z,65.63
2018-12-26T06:20:00.311Z,65.86
2018-12-26T06:22:31.758Z,65.93
2018-12-26T06:25:03.149Z,65.95
2018-12-26T06:27:34.168Z,65.58
2018-12-26T06:30:05.609Z,65.61
2018-12-26T06:32:36.871Z,65.34
2018-12-26T06:35:07.841Z,65.85
2018-12-26T06:37:38.946Z,65.82
2018-12-26T06:40:10.070Z,65.64
2018-12-26T06:42:41.538Z,65.79
2018-12-26T06:45:12.621Z,65.79
2018-12-26T06:47:43.812Z,65.54
2018-12-26T06:50:15.369Z,65.96
2018-12-26T06:52:46.309Z,65.76
2018-12-26T06:55:17.486Z,66.48
2018-12-26T06:57:48.897Z,66.44
2018-12-26T07:00:20.230Z,66.46
2018-12-26T07:02:51.196Z,66.99
2018-12-26T07:05:22.370Z,67.15
2018-12-26T07:07:53.660Z,66.04
2018-12-26T07:10:24.635Z,66.36
2018-12-26T07:12:56.089Z,66.33
2018-12-26T07:15:27.450Z,66.72
2018-12-26T07:18:00.954Z,64.62
2018-12-26T07:20:32.200Z,65.69
2018-12-26T07:23:03.473Z,65.63
2018-12-26T07:25:34.442Z,65.94
2018-12-26T07:28:09.278Z,66.23
2018-12-26T07:30:39.540Z,65.98
2018-12-26T07:33:10.487Z,66.01
2018-12-26T07:35:42.923Z,65.48
2018-12-26T07:38:14.097Z,65.79
2018-12-26T07:40:45.072Z,65.40
2018-12-26T07:43:16.455Z,65.85
2018-12-26T07:45:47.486Z,66.35
2018-12-26T07:48:18.824Z,65.64
2018-12-26T07:50:49.893Z,66.01
2018-12-26T07:53:20.918Z,66.00
2018-12-26T07:55:51.990Z,65.74
2018-12-26T07:58:23.308Z,65.93
2018-12-26T08:00:54.287Z,65.57
2018-12-26T08:03:25.307Z,65.65
2018-12-26T08:05:56.293Z,66.01
2018-12-26T08:08:27.296Z,65.63
2018-12-26T08:10:58.511Z,65.69
2018-12-26T08:13:30.910Z,66.07
2018-12-26T08:16:01.964Z,66.42
2018-12-26T08:18:33.172Z,66.14
2018-12-26T08:21:04.418Z,66.50
2018-12-26T08:23:35.377Z,66.16
2018-12-26T08:26:06.732Z,65.72
2018-12-26T08:28:37.694Z,65.58
2018-12-26T08:31:08.822Z,65.60
2018-12-26T08:33:39.788Z,65.58
2018-12-26T08:36:10.802Z,65.54
2018-12-26T08:38:43.000Z,65.42
2018-12-26T08:41:13.969Z,65.31
2018-12-26T08:43:45.024Z,65.67
2018-12-26T08:46:16.249Z,65.84
2018-12-26T08:48:47.220Z,65.79
2018-12-26T08:51:18.194Z,65.66
2018-12-26T08:53:49.187Z,66.09
2018-12-26T08:56:20.250Z,66.22
2018-12-26T08:58:53.392Z,66.51
2018-12-26T09:01:24.278Z,65.86
2018-12-26T09:03:55.296Z,65.67
2018-12-26T09:06:26.274Z,66.04
2018-12-26T09:08:57.583Z,66.14
2018-12-26T09:11:28.549Z,65.78
2018-12-26T09:14:00.417Z,65.68
2018-12-26T09:16:32.083Z,66.11
2018-12-26T09:19:03.103Z,65.87
2018-12-26T09:21:34.110Z,65.96
2018-12-26T09:24:05.838Z,66.31
2018-12-26T09:26:39.483Z,66.78
2018-12-26T09:29:10.551Z,66.77
2018-12-26T09:31:42.190Z,66.37
2018-12-26T09:34:13.507Z,66.23
2018-12-26T09:36:44.591Z,66.08
2018-12-26T09:39:16.392Z,66.74
2018-12-26T09:41:48.735Z,66.67
2018-12-26T09:44:19.847Z,67.70
2018-12-26T09:46:50.886Z,67.00
2018-12-26T09:49:22.128Z,66.72
2018-12-26T09:51:53.997Z,67.32
2018-12-26T09:54:27.536Z,67.34
2018-12-26T09:57:02.019Z,66.76
2018-12-26T09:59:33.364Z,65.99
2018-12-26T10:02:04.380Z,66.02
2018-12-26T10:04:35.350Z,66.35
2018-12-26T10:07:07.361Z,66.46
2018-12-26T10:09:38.770Z,65.88
2018-12-26T10:12:10.129Z,65.90
2018-12-26T10:14:41.646Z,66.78
2018-12-26T10:17:12.838Z,65.80
2018-12-26T10:19:43.862Z,65.95
2018-12-26T10:22:15.014Z,66.14
2018-12-26T10:24:46.617Z,65.88
2018-12-26T10:27:21.596Z,65.40
2018-12-26T10:29:53.715Z,65.48
2018-12-26T10:32:24.699Z,65.89
2018-12-26T10:34:55.853Z,65.75
2018-12-26T10:37:27.109Z,65.50
2018-12-26T10:39:58.360Z,65.92
2018-12-26T10:42:30.069Z,66.21
2018-12-26T10:45:02.510Z,65.94
2018-12-26T10:47:33.968Z,65.93
2018-12-26T10:50:09.230Z,65.98
2018-12-26T10:52:40.691Z,66.37
2018-12-26T10:55:12.036Z,66.41
2018-12-26T10:57:44.512Z,66.97
2018-12-26T11:00:15.803Z,66.66
2018-12-26T11:02:46.828Z,66.31
2018-12-26T11:05:18.145Z,66.85
2018-12-26T11:07:49.313Z,67.05
2018-12-26T11:10:20.450Z,67.39
2018-12-26T11:12:51.841Z,66.17
2018-12-26T11:15:22.924Z,65.99
2018-12-26T11:17:55.894Z,65.91
2018-12-26T11:20:27.170Z,65.42
2018-12-26T11:22:58.643Z,65.60
2018-12-26T11:25:30.002Z,65.62
2018-12-26T11:28:01.112Z,66.69
2018-12-26T11:30:33.064Z,66.10
2018-12-26T11:33:04.833Z,65.78
2018-12-26T11:35:36.103Z,65.47
2018-12-26T11:38:08.863Z,66.19
2018-12-26T11:40:39.951Z,67.61
2018-12-26T11:43:11.245Z,67.57
2018-12-26T11:45:42.347Z,67.08
2018-12-26T11:48:14.502Z,66.32
2018-12-26T11:50:46.190Z,66.61
2018-12-26T11:53:17.652Z,66.33
2018-12-26T11:55:48.680Z,66.64
2018-12-26T11:58:20.089Z,67.20
2018-12-26T12:00:51.401Z,66.36
2018-12-26T12:03:22.700Z,65.97
2018-12-26T12:05:53.659Z,66.21
2018-12-26T12:08:24.640Z,67.08
2018-12-26T12:10:55.841Z,66.50
2018-12-26T12:13:26.905Z,66.78
2018-12-26T12:15:58.259Z,67.48
2018-12-26T12:18:29.248Z,68.16
2018-12-26T12:21:00.546Z,68.00
2018-12-26T12:23:31.814Z,67.34
2018-12-26T12:26:02.790Z,66.75
2018-12-26T12:28:34.476Z,67.09
2018-12-26T12:31:06.159Z,66.89
2018-12-26T12:33:37.889Z,67.45
2018-12-26T12:36:09.007Z,67.27
2018-12-26T12:38:40.171Z,67.03
2018-12-26T12:41:11.256Z,67.29
2018-12-26T12:43:42.691Z,68.04
2018-12-26T12:46:14.643Z,68.00
2018-12-26T12:48:46.017Z,67.62
2018-12-26T12:51:17.248Z,66.71
2018-12-26T12:53:57.483Z,68.00
2018-12-26T12:56:29.797Z,67.96
2018-12-26T12:59:01.135Z,67.04
2018-12-26T13:01:32.567Z,67.35
2018-12-26T13:04:04.040Z,67.44
2018-12-26T13:06:35.629Z,67.38
2018-12-26T13:09:08.366Z,67.51
2018-12-26T13:11:39.311Z,67.82
2018-12-26T13:14:11.274Z,67.03
2018-12-26T13:16:42.306Z,67.14
2018-12-26T13:19:13.289Z,67.29
2018-12-26T13:21:44.244Z,67.27
2018-12-26T13:24:15.363Z,67.71
2018-12-26T13:26:46.443Z,67.02
2018-12-26T13:29:17.430Z,67.72
2018-12-26T13:31:48.414Z,67.48
2018-12-26T13:34:19.649Z,67.15
2018-12-26T13:36:50.737Z,67.80
2018-12-26T13:39:22.048Z,67.73
2018-12-26T13:41:53.017Z,67.74
2018-12-26T13:44:24.442Z,68.09
2018-12-26T13:46:55.425Z,67.97
2018-12-26T13:49:26.471Z,68.25
2018-12-26T13:51:57.786Z,68.14
2018-12-26T13:54:29.153Z,68.08
2018-12-26T13:57:00.137Z,68.13
2018-12-26T13:59:31.506Z,67.62
2018-12-26T14:02:02.522Z,68.44
2018-12-26T14:04:33.905Z,68.72
2018-12-26T14:07:04.988Z,68.89
2018-12-26T14:09:35.937Z,68.56
2018-12-26T14:12:06.905Z,69.13
2018-12-26T14:14:38.995Z,70.48
2018-12-26T14:17:10.007Z,70.93
2018-12-26T14:19:41.285Z,70.34
2018-12-26T14:22:12.415Z,71.14
2018-12-26T14:24:44.262Z,71.21
2018-12-26T14:27:15.514Z,70.25
2018-12-26T14:29:46.459Z,69.49
2018-12-26T14:32:18.048Z,69.59
2018-12-26T14:34:49.927Z,69.27
2018-12-26T14:37:21.252Z,68.27
2018-12-26T14:39:52.212Z,68.23
2018-12-26T14:42:24.458Z,68.65
2018-12-26T14:44:56.223Z,68.74
2018-12-26T14:47:27.293Z,68.34
2018-12-26T14:49:58.530Z,69.15
2018-12-26T14:52:29.832Z,68.31
2018-12-26T14:55:00.774Z,68.35
2018-12-26T14:57:34.989Z,68.74
2018-12-26T15:00:06.438Z,68.66
2018-12-26T15:02:37.552Z,68.15
2018-12-26T15:05:08.805Z,68.04
2018-12-26T15:07:40.422Z,67.56
2018-12-26T15:10:11.389Z,67.27
2018-12-26T15:12:42.793Z,67.37
2018-12-26T15:15:13.819Z,66.70
2018-12-26T15:17:44.825Z,66.73
2018-12-26T15:20:15.839Z,67.49
2018-12-26T15:22:47.164Z,67.38
2018-12-26T15:25:18.111Z,67.31
2018-12-26T15:27:49.131Z,66.82
2018-12-26T15:30:28.400Z,66.09
2018-12-26T15:32:53.394Z,66.23
2018-12-26T15:35:24.346Z,66.77
2018-12-26T15:37:55.460Z,66.51
2018-12-26T15:40:26.524Z,66.69
2018-12-26T15:42:57.496Z,66.47
2018-12-26T15:45:28.456Z,66.38
2018-12-26T15:47:59.459Z,66.95
2018-12-26T15:50:31.779Z,66.33
2018-12-26T15:53:03.036Z,66.40
2018-12-26T15:55:34.098Z,66.33
2018-12-26T15:58:05.147Z,65.76
2018-12-26T16:00:37.531Z,66.20
2018-12-26T16:03:08.973Z,65.91
2018-12-26T16:05:39.936Z,65.86
2018-12-26T16:08:12.155Z,66.17
2018-12-26T16:10:44.339Z,65.57
2018-12-26T16:13:15.508Z,64.89
2018-12-26T16:15:49.312Z,65.25
2018-12-26T16:18:20.300Z,65.44
2018-12-26T16:20:51.746Z,66.63
2018-12-26T16:23:22.728Z,65.83
2018-12-26T16:25:54.655Z,65.31
2018-12-26T16:28:26.619Z,65.07
2018-12-26T16:30:57.583Z,64.80
2018-12-26T16:33:28.584Z,64.62
2018-12-26T16:35:59.665Z,64.74
2018-12-26T16:38:30.642Z,64.46
2018-12-26T16:41:01.596Z,64.47
2018-12-26T16:43:33.636Z,65.37
2018-12-26T16:46:04.982Z,65.95
2018-12-26T16:48:36.101Z,65.66
2018-12-26T16:51:07.139Z,64.81
2018-12-26T16:53:38.205Z,64.35
2018-12-26T16:56:09.225Z,64.28
2018-12-26T16:58:40.308Z,64.15
2018-12-26T17:01:11.274Z,64.63
2018-12-26T17:03:42.261Z,64.61
2018-12-26T17:06:13.445Z,65.45
2018-12-26T17:08:44.460Z,65.53
2018-12-26T17:11:15.675Z,65.22
2018-12-26T17:13:46.969Z,64.65
2018-12-26T17:16:17.924Z,64.49
2018-12-26T17:18:48.909Z,64.62
2018-12-26T17:21:19.859Z,65.02
2018-12-26T17:23:51.172Z,64.96
2018-12-26T17:26:22.278Z,65.35
2018-12-26T17:28:53.246Z,65.32
2018-12-26T17:31:24.250Z,64.75
2018-12-26T17:33:55.351Z,65.11
2018-12-26T17:36:26.425Z,64.94
2018-12-26T17:38:57.562Z,65.63
2018-12-26T17:41:30.675Z,65.07
2018-12-26T17:44:01.679Z,65.02
2018-12-26T17:46:32.870Z,65.03
2018-12-26T17:49:03.842Z,65.00
2018-12-26T17:51:34.797Z,65.24
2018-12-26T17:54:49.970Z,65.00
2018-12-26T17:57:40.251Z,64.38
2018-12-26T18:00:50.345Z,64.98
2018-12-26T18:03:21.344Z,64.92
2018-12-26T18:05:53.521Z,65.35
2018-12-26T18:08:25.781Z,64.27
2018-12-26T18:10:56.733Z,64.39
2018-12-26T18:13:28.696Z,64.44
2018-12-26T18:15:59.650Z,64.67
2018-12-26T18:18:30.637Z,64.42
2018-12-26T18:21:01.676Z,64.95
2018-12-26T18:23:32.682Z,65.13
2018-12-26T18:26:04.015Z,65.65
2018-12-26T18:28:37.018Z,65.33
2018-12-26T18:31:08.315Z,65.12
2018-12-26T18:33:39.326Z,65.84
2018-12-26T18:36:10.285Z,64.80
2018-12-26T18:38:41.292Z,64.71
2018-12-26T18:41:12.247Z,65.25
2018-12-26T18:43:43.254Z,65.15
2018-12-26T18:46:15.182Z,65.39
2018-12-26T18:48:46.175Z,65.59
2018-12-26T18:51:17.131Z,65.79
2018-12-26T18:53:48.197Z,65.50
2018-12-26T18:56:19.380Z,65.21
2018-12-26T18:58:50.542Z,65.59
2018-12-26T19:01:21.561Z,65.32
2018-12-26T19:03:52.789Z,66.19
2018-12-26T19:06:23.814Z,66.15
2018-12-26T19:08:54.893Z,65.81
2018-12-26T19:11:25.843Z,65.27
2018-12-26T19:13:56.910Z,65.23
2018-12-26T19:16:28.196Z,65.12
2018-12-26T19:18:59.416Z,65.21
2018-12-26T19:21:30.464Z,64.67
2018-12-26T19:24:01.514Z,64.85
2018-12-26T19:26:32.769Z,65.43
2018-12-26T19:29:03.750Z,65.10
2018-12-26T19:31:39.425Z,65.08
2018-12-26T19:34:07.930Z,65.26
2018-12-26T19:36:38.929Z,64.93
2018-12-26T19:39:10.165Z,64.96
2018-12-26T19:41:43.284Z,64.86
2018-12-26T19:44:15.384Z,65.03
2018-12-26T19:46:46.729Z,65.47
2018-12-26T19:49:17.808Z,65.21
2018-12-26T19:51:48.776Z,65.08
2018-12-26T19:54:19.884Z,64.88
2018-12-26T19:56:50.832Z,65.39
2018-12-26T19:59:21.825Z,65.42
2018-12-26T20:01:52.788Z,65.95
2018-12-26T20:04:24.113Z,65.48
2018-12-26T20:06:55.074Z,65.83
2018-12-26T20:09:26.067Z,65.86
2018-12-26T20:12:04.520Z,65.21
2018-12-26T20:14:35.557Z,65.60
2018-12-26T20:17:06.517Z,64.93
2018-12-26T20:19:37.603Z,64.76
2018-12-26T20:22:08.564Z,64.90
2018-12-26T20:24:39.601Z,65.07
2018-12-26T20:27:11.170Z,64.96
2018-12-26T20:29:42.425Z,65.59
2018-12-26T20:32:13.380Z,65.04
2018-12-26T20:34:45.055Z,65.08
2018-12-26T20:37:16.086Z,64.85
2018-12-26T20:39:47.417Z,64.96
2018-12-26T20:42:19.518Z,64.89
2018-12-26T20:44:50.502Z,64.16
2018-12-26T20:47:21.462Z,64.34
2018-12-26T20:49:52.720Z,64.75
2018-12-26T20:52:23.673Z,65.16
2018-12-26T20:54:54.750Z,65.28
2018-12-26T20:57:25.706Z,65.02
2018-12-26T20:59:56.807Z,65.31
2018-12-26T21:02:27.817Z,65.00
2018-12-26T21:05:00.455Z,64.82
2018-12-26T21:07:31.870Z,65.17
2018-12-26T21:10:03.024Z,64.81
2018-12-26T21:12:33.994Z,64.79
2018-12-26T21:15:05.458Z,64.42
2018-12-26T21:17:36.443Z,64.69
2018-12-26T21:20:09.099Z,64.52
2018-12-26T21:22:40.405Z,64.84
2018-12-26T21:25:11.889Z,65.07
2018-12-26T21:27:42.841Z,65.00
2018-12-26T21:30:15.929Z,64.86
2018-12-26T21:32:47.865Z,64.30
2018-12-26T21:35:20.004Z,64.45
2018-12-26T21:37:51.287Z,64.29
2018-12-26T21:40:22.639Z,64.23
2018-12-26T21:42:53.716Z,64.36
2018-12-26T21:45:24.960Z,64.79
2018-12-26T21:47:56.051Z,65.02
2018-12-26T21:50:27.056Z,64.94
2018-12-26T21:52:58.012Z,64.67
2018-12-26T21:55:29.004Z,64.51
2018-12-26T21:57:59.962Z,64.53
2018-12-26T22:00:30.977Z,64.09
2018-12-26T22:03:02.048Z,64.37
2018-12-26T22:05:33.200Z,64.75
2018-12-26T22:08:04.197Z,64.88
2018-12-26T22:10:35.461Z,64.89
2018-12-26T22:13:06.414Z,64.20
2018-12-26T22:15:37.471Z,64.14
2018-12-26T22:18:08.776Z,64.22
2018-12-26T22:20:39.772Z,64.08
2018-12-26T22:23:10.735Z,64.73
2018-12-26T22:25:41.947Z,64.72
2018-12-26T22:28:12.914Z,64.60
2018-12-26T22:30:43.945Z,65.19
2018-12-26T22:33:15.124Z,64.80
2018-12-26T22:35:46.424Z,64.08
2018-12-26T22:38:17.398Z,64.24
2018-12-26T22:40:48.390Z,64.25
2018-12-26T22:43:19.348Z,64.85
2018-12-26T22:45:51.643Z,64.90
2018-12-26T22:48:22.701Z,65.35
2018-12-26T22:50:53.790Z,65.19
2018-12-26T22:53:24.738Z,64.34
2018-12-26T22:55:55.723Z,64.13
2018-12-26T22:58:27.172Z,65.37
2018-12-26T23:00:58.242Z,64.75
2018-12-26T23:03:29.288Z,65.71
2018-12-26T23:06:00.524Z,65.33
2018-12-26T23:08:31.724Z,65.13
2018-12-26T23:11:02.705Z,64.76
2018-12-26T23:13:33.921Z,64.49
2018-12-26T23:16:04.971Z,64.48
2018-12-26T23:18:36.194Z,64.33
2018-12-26T23:21:07.173Z,63.84
2018-12-26T23:23:38.139Z,63.96
2018-12-26T23:26:09.135Z,63.48
2018-12-26T23:28:43.341Z,63.79
2018-12-26T23:31:14.429Z,63.43
2018-12-26T23:33:45.676Z,63.19
2018-12-26T23:36:16.659Z,63.25
2018-12-26T23:38:47.730Z,63.60
2018-12-26T23:41:18.692Z,63.36
2018-12-26T23:43:49.819Z,62.96
2018-12-26T23:46:20.794Z,63.18
2018-12-26T23:48:53.117Z,63.15
2018-12-26T23:51:24.071Z,63.51
2018-12-26T23:53:55.060Z,63.11
2018-12-26T23:56:26.305Z,63.12
2018-12-26T23:58:57.290Z,63.83
